sensor_id;sensor_type;location;lat;lon;timestamp;pressure;altitude;pressure_sealevel;temperature;humidity
68141;BME280;54941;52.220;104.306;2022-07-21T00:01:53;96066.84;;;14.37;85.87
68141;BME280;54941;52.220;104.306;2022-07-21T00:04:20;96068.63;;;14.53;85.40
68141;BME280;54941;52.220;104.306;2022-07-21T00:06:46;96068.84;;;14.69;84.69
68141;BME280;54941;52.220;104.306;2022-07-21T00:09:14;96061.69;;;14.76;83.94
68141;BME280;54941;52.220;104.306;2022-07-21T00:11:41;96063.56;;;14.30;85.23
68141;BME280;54941;52.220;104.306;2022-07-21T00:14:09;96062.34;;;14.49;84.62
68141;BME280;54941;52.220;104.306;2022-07-21T00:16:36;96062.66;;;14.53;84.53
68141;BME280;54941;52.220;104.306;2022-07-21T00:19:03;96054.69;;;14.76;84.05
68141;BME280;54941;52.220;104.306;2022-07-21T00:21:29;96058.22;;;14.87;83.48
68141;BME280;54941;52.220;104.306;2022-07-21T00:23:55;96052.19;;;15.03;82.43
68141;BME280;54941;52.220;104.306;2022-07-21T00:26:21;96053.81;;;15.09;82.04
68141;BME280;54941;52.220;104.306;2022-07-21T00:28:48;96055.63;;;15.08;82.16
68141;BME280;54941;52.220;104.306;2022-07-21T00:31:15;96051.13;;;15.21;81.44
68141;BME280;54941;52.220;104.306;2022-07-21T00:33:41;96047.81;;;15.47;81.12
68141;BME280;54941;52.220;104.306;2022-07-21T00:36:08;96047.56;;;15.27;81.09
68141;BME280;54941;52.220;104.306;2022-07-21T00:38:34;96048.63;;;15.31;80.89
68141;BME280;54941;52.220;104.306;2022-07-21T00:41:01;96047.50;;;15.22;81.44
68141;BME280;54941;52.220;104.306;2022-07-21T00:43:27;96046.22;;;15.46;80.79
68141;BME280;54941;52.220;104.306;2022-07-21T00:45:54;96045.69;;;15.66;79.37
68141;BME280;54941;52.220;104.306;2022-07-21T00:48:21;96062.97;;;15.33;80.09
68141;BME280;54941;52.220;104.306;2022-07-21T00:50:48;96053.91;;;15.57;79.63
68141;BME280;54941;52.220;104.306;2022-07-21T00:53:14;96050.00;;;15.55;79.34
68141;BME280;54941;52.220;104.306;2022-07-21T00:55:44;96049.53;;;15.63;78.72
68141;BME280;54941;52.220;104.306;2022-07-21T00:58:11;96050.19;;;15.75;78.41
68141;BME280;54941;52.220;104.306;2022-07-21T01:00:37;96056.19;;;15.76;78.29
68141;BME280;54941;52.220;104.306;2022-07-21T01:03:03;96060.72;;;15.64;78.64
68141;BME280;54941;52.220;104.306;2022-07-21T01:05:30;96058.84;;;15.81;77.29
68141;BME280;54941;52.220;104.306;2022-07-21T01:07:56;96057.72;;;15.98;76.16
68141;BME280;54941;52.220;104.306;2022-07-21T01:10:24;96068.41;;;16.34;75.13
68141;BME280;54941;52.220;104.306;2022-07-21T01:12:51;96069.25;;;16.71;73.27
68141;BME280;54941;52.220;104.306;2022-07-21T01:15:19;96067.50;;;16.50;73.73
68141;BME280;54941;52.220;104.306;2022-07-21T01:17:46;96066.56;;;16.98;72.96
68141;BME280;54941;52.220;104.306;2022-07-21T01:20:15;96071.63;;;16.78;73.03
68141;BME280;54941;52.220;104.306;2022-07-21T01:22:44;96062.66;;;17.00;72.70
68141;BME280;54941;52.220;104.306;2022-07-21T01:25:12;96062.63;;;17.47;70.49
68141;BME280;54941;52.220;104.306;2022-07-21T01:27:38;96065.44;;;17.36;70.88
68141;BME280;54941;52.220;104.306;2022-07-21T01:30:06;96062.41;;;17.59;69.75
68141;BME280;54941;52.220;104.306;2022-07-21T01:32:38;96061.19;;;17.87;69.10
68141;BME280;54941;52.220;104.306;2022-07-21T01:35:06;96060.47;;;18.17;67.49
68141;BME280;54941;52.220;104.306;2022-07-21T01:37:37;96057.31;;;18.20;67.00
68141;BME280;54941;52.220;104.306;2022-07-21T01:40:03;96054.19;;;18.38;66.31
68141;BME280;54941;52.220;104.306;2022-07-21T01:42:30;96056.78;;;18.33;65.31
68141;BME280;54941;52.220;104.306;2022-07-21T01:44:56;96063.59;;;18.84;63.66
68141;BME280;54941;52.220;104.306;2022-07-21T01:47:22;96063.56;;;18.94;62.90
68141;BME280;54941;52.220;104.306;2022-07-21T01:49:49;96061.00;;;18.39;64.53
68141;BME280;54941;52.220;104.306;2022-07-21T01:52:15;96055.75;;;18.74;63.97
68141;BME280;54941;52.220;104.306;2022-07-21T01:54:44;96060.19;;;18.84;63.63
68141;BME280;54941;52.220;104.306;2022-07-21T01:57:10;96049.94;;;19.08;62.20
68141;BME280;54941;52.220;104.306;2022-07-21T01:59:36;96057.31;;;18.85;63.27
68141;BME280;54941;52.220;104.306;2022-07-21T02:02:02;96065.16;;;18.95;62.83
68141;BME280;54941;52.220;104.306;2022-07-21T02:04:28;96062.00;;;18.88;62.69
68141;BME280;54941;52.220;104.306;2022-07-21T02:06:55;96060.34;;;19.28;61.27
68141;BME280;54941;52.220;104.306;2022-07-21T02:09:21;96056.69;;;19.24;62.81
68141;BME280;54941;52.220;104.306;2022-07-21T02:11:47;96054.47;;;18.77;63.38
68141;BME280;54941;52.220;104.306;2022-07-21T02:14:13;96051.31;;;18.95;63.45
68141;BME280;54941;52.220;104.306;2022-07-21T02:16:39;96051.06;;;18.76;63.84
68141;BME280;54941;52.220;104.306;2022-07-21T02:19:08;96053.41;;;19.62;62.31
68141;BME280;54941;52.220;104.306;2022-07-21T02:21:34;96044.34;;;19.93;60.70
68141;BME280;54941;52.220;104.306;2022-07-21T02:24:00;96042.34;;;19.80;59.71
68141;BME280;54941;52.220;104.306;2022-07-21T02:26:26;96044.63;;;19.92;59.81
68141;BME280;54941;52.220;104.306;2022-07-21T02:28:52;96045.34;;;20.70;57.49
68141;BME280;54941;52.220;104.306;2022-07-21T02:31:18;96053.16;;;20.75;56.94
68141;BME280;54941;52.220;104.306;2022-07-21T02:33:45;96054.56;;;21.63;55.70
68141;BME280;54941;52.220;104.306;2022-07-21T02:36:11;96042.06;;;21.36;55.39
68141;BME280;54941;52.220;104.306;2022-07-21T02:38:37;96039.47;;;22.29;52.97
68141;BME280;54941;52.220;104.306;2022-07-21T02:41:04;96043.50;;;22.08;52.68
68141;BME280;54941;52.220;104.306;2022-07-21T02:43:30;96037.91;;;22.28;52.68
68141;BME280;54941;52.220;104.306;2022-07-21T02:45:56;96034.31;;;22.24;53.23
68141;BME280;54941;52.220;104.306;2022-07-21T02:48:22;96029.38;;;22.69;50.60
68141;BME280;54941;52.220;104.306;2022-07-21T02:50:49;96024.13;;;22.69;50.46
68141;BME280;54941;52.220;104.306;2022-07-21T02:53:17;96017.63;;;22.80;51.06
68141;BME280;54941;52.220;104.306;2022-07-21T02:55:45;96014.13;;;22.71;50.40
68141;BME280;54941;52.220;104.306;2022-07-21T02:58:20;96001.31;;;22.83;49.48
68141;BME280;54941;52.220;104.306;2022-07-21T03:00:59;95996.44;;;24.03;49.03
68141;BME280;54941;52.220;104.306;2022-07-21T03:03:28;96006.72;;;23.68;48.79
68141;BME280;54941;52.220;104.306;2022-07-21T03:05:54;96005.50;;;23.74;48.09
68141;BME280;54941;52.220;104.306;2022-07-21T03:08:21;96001.66;;;24.92;46.28
68141;BME280;54941;52.220;104.306;2022-07-21T03:10:48;95996.66;;;24.59;46.46
68141;BME280;54941;52.220;104.306;2022-07-21T03:13:14;95990.28;;;24.52;46.22
68141;BME280;54941;52.220;104.306;2022-07-21T03:15:41;95997.28;;;25.27;44.95
68141;BME280;54941;52.220;104.306;2022-07-21T03:18:07;96001.19;;;24.37;46.83
68141;BME280;54941;52.220;104.306;2022-07-21T03:20:36;95993.31;;;24.76;46.57
68141;BME280;54941;52.220;104.306;2022-07-21T03:23:04;95992.38;;;24.41;45.97
68141;BME280;54941;52.220;104.306;2022-07-21T03:25:30;95993.00;;;24.38;46.08
68141;BME280;54941;52.220;104.306;2022-07-21T03:27:56;95995.38;;;24.79;45.46
68141;BME280;54941;52.220;104.306;2022-07-21T03:30:23;95981.47;;;24.87;44.40
68141;BME280;54941;52.220;104.306;2022-07-21T03:32:50;95986.78;;;23.98;45.91
68141;BME280;54941;52.220;104.306;2022-07-21T03:35:17;95982.41;;;24.30;45.65
68141;BME280;54941;52.220;104.306;2022-07-21T03:37:46;95982.78;;;24.76;44.36
68141;BME280;54941;52.220;104.306;2022-07-21T03:40:15;95968.63;;;24.94;43.90
68141;BME280;54941;52.220;104.306;2022-07-21T03:42:41;95969.25;;;25.00;42.79
68141;BME280;54941;52.220;104.306;2022-07-21T03:45:09;95964.63;;;25.05;43.03
68141;BME280;54941;52.220;104.306;2022-07-21T03:47:35;95973.81;;;25.25;43.72
68141;BME280;54941;52.220;104.306;2022-07-21T03:50:03;95975.16;;;25.88;44.25
68141;BME280;54941;52.220;104.306;2022-07-21T03:52:29;95975.00;;;25.84;42.90
68141;BME280;54941;52.220;104.306;2022-07-21T03:54:55;95970.34;;;25.90;42.07
68141;BME280;54941;52.220;104.306;2022-07-21T03:57:23;95965.47;;;25.49;42.96
68141;BME280;54941;52.220;104.306;2022-07-21T03:59:49;95970.31;;;25.55;43.23
68141;BME280;54941;52.220;104.306;2022-07-21T04:02:15;95967.22;;;26.05;42.75
68141;BME280;54941;52.220;104.306;2022-07-21T04:04:41;95956.34;;;25.89;41.90
68141;BME280;54941;52.220;104.306;2022-07-21T04:07:08;95957.44;;;25.97;42.87
68141;BME280;54941;52.220;104.306;2022-07-21T04:09:34;95951.53;;;25.91;42.02
68141;BME280;54941;52.220;104.306;2022-07-21T04:12:02;95949.75;;;25.18;42.64
68141;BME280;54941;52.220;104.306;2022-07-21T04:14:31;95952.31;;;25.83;42.43
68141;BME280;54941;52.220;104.306;2022-07-21T04:16:57;95949.63;;;26.09;41.74
68141;BME280;54941;52.220;104.306;2022-07-21T04:19:24;95947.16;;;26.04;41.20
68141;BME280;54941;52.220;104.306;2022-07-21T04:21:50;95951.69;;;25.52;42.27
68141;BME280;54941;52.220;104.306;2022-07-21T04:24:16;95944.03;;;25.50;41.95
68141;BME280;54941;52.220;104.306;2022-07-21T04:26:42;95935.78;;;25.17;42.93
68141;BME280;54941;52.220;104.306;2022-07-21T04:29:08;95941.31;;;24.99;43.91
68141;BME280;54941;52.220;104.306;2022-07-21T04:31:34;95937.63;;;25.17;43.45
68141;BME280;54941;52.220;104.306;2022-07-21T04:34:00;95937.06;;;25.46;42.55
68141;BME280;54941;52.220;104.306;2022-07-21T04:36:26;95930.81;;;24.77;43.58
68141;BME280;54941;52.220;104.306;2022-07-21T04:38:52;95932.13;;;24.48;44.39
68141;BME280;54941;52.220;104.306;2022-07-21T04:41:19;95931.41;;;25.04;43.54
68141;BME280;54941;52.220;104.306;2022-07-21T04:43:45;95933.00;;;24.13;44.74
68141;BME280;54941;52.220;104.306;2022-07-21T04:46:11;95934.63;;;24.00;44.95
68141;BME280;54941;52.220;104.306;2022-07-21T04:48:37;95929.81;;;23.80;45.87
68141;BME280;54941;52.220;104.306;2022-07-21T04:51:04;95926.44;;;24.02;46.11
68141;BME280;54941;52.220;104.306;2022-07-21T04:53:30;95930.75;;;24.20;44.58
68141;BME280;54941;52.220;104.306;2022-07-21T04:55:56;95932.63;;;24.28;45.15
68141;BME280;54941;52.220;104.306;2022-07-21T04:58:22;95926.94;;;24.35;44.47
68141;BME280;54941;52.220;104.306;2022-07-21T05:00:49;95924.75;;;24.67;44.94
68141;BME280;54941;52.220;104.306;2022-07-21T05:03:16;95926.28;;;24.60;42.44
68141;BME280;54941;52.220;104.306;2022-07-21T05:05:42;95921.97;;;24.64;43.58
68141;BME280;54941;52.220;104.306;2022-07-21T05:08:08;95917.22;;;24.44;45.08
68141;BME280;54941;52.220;104.306;2022-07-21T05:10:34;95912.81;;;24.70;44.71
68141;BME280;54941;52.220;104.306;2022-07-21T05:13:00;95922.41;;;24.66;44.17
68141;BME280;54941;52.220;104.306;2022-07-21T05:15:27;95922.25;;;24.62;45.26
68141;BME280;54941;52.220;104.306;2022-07-21T05:17:53;95917.59;;;24.29;45.94
68141;BME280;54941;52.220;104.306;2022-07-21T05:20:19;95920.69;;;24.53;46.62
68141;BME280;54941;52.220;104.306;2022-07-21T05:22:45;95911.50;;;24.50;47.07
68141;BME280;54941;52.220;104.306;2022-07-21T05:25:11;95905.38;;;24.63;47.96
68141;BME280;54941;52.220;104.306;2022-07-21T05:27:37;95908.34;;;24.40;48.29
68141;BME280;54941;52.220;104.306;2022-07-21T05:30:06;95905.13;;;24.43;48.73
68141;BME280;54941;52.220;104.306;2022-07-21T05:32:32;95899.78;;;24.65;48.59
68141;BME280;54941;52.220;104.306;2022-07-21T05:34:58;95893.47;;;24.35;49.52
68141;BME280;54941;52.220;104.306;2022-07-21T05:37:25;95896.28;;;24.39;48.22
68141;BME280;54941;52.220;104.306;2022-07-21T05:39:51;95890.56;;;24.45;47.87
68141;BME280;54941;52.220;104.306;2022-07-21T05:42:17;95892.19;;;24.24;47.77
68141;BME280;54941;52.220;104.306;2022-07-21T05:44:43;95885.59;;;24.44;47.01
68141;BME280;54941;52.220;104.306;2022-07-21T05:47:09;95880.00;;;24.37;49.09
68141;BME280;54941;52.220;104.306;2022-07-21T05:49:35;95877.06;;;24.47;48.97
68141;BME280;54941;52.220;104.306;2022-07-21T05:52:02;95874.19;;;24.57;47.50
68141;BME280;54941;52.220;104.306;2022-07-21T05:54:28;95879.28;;;24.53;47.10
68141;BME280;54941;52.220;104.306;2022-07-21T05:56:54;95874.19;;;24.65;46.85
68141;BME280;54941;52.220;104.306;2022-07-21T05:59:20;95872.28;;;24.49;47.28
68141;BME280;54941;52.220;104.306;2022-07-21T06:01:46;95868.28;;;24.20;49.98
68141;BME280;54941;52.220;104.306;2022-07-21T06:04:12;95867.06;;;23.73;51.99
68141;BME280;54941;52.220;104.306;2022-07-21T06:06:38;95866.06;;;23.83;51.17
68141;BME280;54941;52.220;104.306;2022-07-21T06:09:04;95859.50;;;23.72;51.77
68141;BME280;54941;52.220;104.306;2022-07-21T06:11:31;95861.94;;;23.68;52.01
68141;BME280;54941;52.220;104.306;2022-07-21T06:13:57;95858.00;;;23.57;51.68
68141;BME280;54941;52.220;104.306;2022-07-21T06:16:23;95850.59;;;23.59;51.84
68141;BME280;54941;52.220;104.306;2022-07-21T06:18:49;95846.84;;;23.38;52.81
68141;BME280;54941;52.220;104.306;2022-07-21T06:21:15;95847.09;;;23.50;51.53
68141;BME280;54941;52.220;104.306;2022-07-21T06:23:41;95843.16;;;23.61;50.20
68141;BME280;54941;52.220;104.306;2022-07-21T06:26:07;95838.50;;;23.58;49.10
68141;BME280;54941;52.220;104.306;2022-07-21T06:28:33;95833.22;;;23.58;49.05
68141;BME280;54941;52.220;104.306;2022-07-21T06:31:00;95828.31;;;23.43;49.09
68141;BME280;54941;52.220;104.306;2022-07-21T06:33:26;95819.28;;;23.58;48.97
68141;BME280;54941;52.220;104.306;2022-07-21T06:35:52;95830.06;;;23.70;48.17
68141;BME280;54941;52.220;104.306;2022-07-21T06:38:18;95826.25;;;23.85;48.77
68141;BME280;54941;52.220;104.306;2022-07-21T06:40:44;95823.41;;;24.03;47.00
68141;BME280;54941;52.220;104.306;2022-07-21T06:43:11;95821.06;;;24.24;47.10
68141;BME280;54941;52.220;104.306;2022-07-21T06:45:37;95817.69;;;24.01;47.31
68141;BME280;54941;52.220;104.306;2022-07-21T06:48:05;95812.88;;;24.03;48.30
68141;BME280;54941;52.220;104.306;2022-07-21T06:50:32;95811.03;;;24.04;47.05
68141;BME280;54941;52.220;104.306;2022-07-21T06:52:58;95813.72;;;23.82;48.24
68141;BME280;54941;52.220;104.306;2022-07-21T06:55:25;95806.41;;;23.79;47.00
68141;BME280;54941;52.220;104.306;2022-07-21T06:57:51;95807.44;;;23.69;46.77
68141;BME280;54941;52.220;104.306;2022-07-21T07:00:17;95805.63;;;23.78;48.54
68141;BME280;54941;52.220;104.306;2022-07-21T07:02:44;95808.97;;;23.92;49.08
68141;BME280;54941;52.220;104.306;2022-07-21T07:05:12;95799.56;;;23.47;49.46
68141;BME280;54941;52.220;104.306;2022-07-21T07:07:41;95798.66;;;23.51;50.33
68141;BME280;54941;52.220;104.306;2022-07-21T07:10:09;95805.28;;;23.71;50.27
68141;BME280;54941;52.220;104.306;2022-07-21T07:12:35;95806.53;;;23.43;52.54
68141;BME280;54941;52.220;104.306;2022-07-21T07:15:01;95793.16;;;23.17;54.32
68141;BME280;54941;52.220;104.306;2022-07-21T07:17:29;95794.09;;;23.21;52.22
68141;BME280;54941;52.220;104.306;2022-07-21T07:19:55;95798.00;;;22.88;52.29
68141;BME280;54941;52.220;104.306;2022-07-21T07:22:22;95789.06;;;23.11;50.32
68141;BME280;54941;52.220;104.306;2022-07-21T07:24:48;95784.41;;;23.08;49.60
68141;BME280;54941;52.220;104.306;2022-07-21T07:27:14;95785.81;;;22.92;50.54
68141;BME280;54941;52.220;104.306;2022-07-21T07:29:40;95781.88;;;23.16;49.14
68141;BME280;54941;52.220;104.306;2022-07-21T07:32:06;95776.78;;;23.20;49.70
68141;BME280;54941;52.220;104.306;2022-07-21T07:34:32;95781.25;;;23.19;50.84
68141;BME280;54941;52.220;104.306;2022-07-21T07:37:00;95779.22;;;23.16;51.79
68141;BME280;54941;52.220;104.306;2022-07-21T07:39:26;95772.50;;;22.88;51.44
68141;BME280;54941;52.220;104.306;2022-07-21T07:41:52;95776.44;;;23.13;50.97
68141;BME280;54941;52.220;104.306;2022-07-21T07:44:18;95779.25;;;22.80;50.99
68141;BME280;54941;52.220;104.306;2022-07-21T07:46:44;95775.00;;;22.57;51.58
68141;BME280;54941;52.220;104.306;2022-07-21T07:49:10;95771.06;;;22.82;51.43
68141;BME280;54941;52.220;104.306;2022-07-21T07:51:37;95777.56;;;22.85;48.35
68141;BME280;54941;52.220;104.306;2022-07-21T07:54:03;95775.28;;;22.69;49.22
68141;BME280;54941;52.220;104.306;2022-07-21T07:56:30;95773.22;;;22.66;50.00
68141;BME280;54941;52.220;104.306;2022-07-21T07:58:56;95776.59;;;22.31;50.59
68141;BME280;54941;52.220;104.306;2022-07-21T08:01:22;95776.78;;;22.35;51.27
68141;BME280;54941;52.220;104.306;2022-07-21T08:03:48;95769.00;;;22.29;50.64
68141;BME280;54941;52.220;104.306;2022-07-21T08:06:14;95767.16;;;22.16;51.59
68141;BME280;54941;52.220;104.306;2022-07-21T08:08:40;95767.44;;;22.28;52.13
68141;BME280;54941;52.220;104.306;2022-07-21T08:11:07;95778.44;;;22.03;52.57
68141;BME280;54941;52.220;104.306;2022-07-21T08:13:33;95776.19;;;22.10;52.86
68141;BME280;54941;52.220;104.306;2022-07-21T08:15:59;95779.91;;;22.09;53.01
68141;BME280;54941;52.220;104.306;2022-07-21T08:18:25;95785.03;;;22.14;53.05
68141;BME280;54941;52.220;104.306;2022-07-21T08:20:51;95785.91;;;22.10;53.80
68141;BME280;54941;52.220;104.306;2022-07-21T08:23:18;95783.41;;;22.05;54.63
68141;BME280;54941;52.220;104.306;2022-07-21T08:25:44;95779.97;;;22.18;54.92
68141;BME280;54941;52.220;104.306;2022-07-21T08:28:11;95782.91;;;22.03;56.00
68141;BME280;54941;52.220;104.306;2022-07-21T08:30:37;95777.81;;;21.79;57.58
68141;BME280;54941;52.220;104.306;2022-07-21T08:33:04;95778.41;;;21.76;58.04
68141;BME280;54941;52.220;104.306;2022-07-21T08:35:30;95770.59;;;21.71;59.56
68141;BME280;54941;52.220;104.306;2022-07-21T08:37:57;95773.88;;;21.63;58.42
68141;BME280;54941;52.220;104.306;2022-07-21T08:40:26;95771.16;;;21.54;59.12
68141;BME280;54941;52.220;104.306;2022-07-21T08:42:54;95767.19;;;21.70;58.51
68141;BME280;54941;52.220;104.306;2022-07-21T08:45:21;95762.13;;;21.60;59.38
68141;BME280;54941;52.220;104.306;2022-07-21T08:47:55;95764.38;;;21.67;59.47
68141;BME280;54941;52.220;104.306;2022-07-21T08:50:23;95762.25;;;21.69;60.03
68141;BME280;54941;52.220;104.306;2022-07-21T08:52:50;95764.78;;;21.74;59.65
68141;BME280;54941;52.220;104.306;2022-07-21T08:55:19;95758.66;;;21.78;59.85
68141;BME280;54941;52.220;104.306;2022-07-21T08:57:46;95759.88;;;21.54;60.46
68141;BME280;54941;52.220;104.306;2022-07-21T09:00:12;95751.19;;;21.85;59.65
68141;BME280;54941;52.220;104.306;2022-07-21T09:02:38;95755.47;;;21.95;59.53
68141;BME280;54941;52.220;104.306;2022-07-21T09:05:07;95753.75;;;21.91;59.55
68141;BME280;54941;52.220;104.306;2022-07-21T09:07:54;95750.69;;;21.83;59.66
68141;BME280;54941;52.220;104.306;2022-07-21T09:10:27;95746.44;;;21.88;59.57
68141;BME280;54941;52.220;104.306;2022-07-21T09:12:56;95741.00;;;21.98;59.97
68141;BME280;54941;52.220;104.306;2022-07-21T09:15:24;95744.91;;;22.00;59.88
68141;BME280;54941;52.220;104.306;2022-07-21T09:18:11;95746.53;;;22.10;59.39
68141;BME280;54941;52.220;104.306;2022-07-21T09:20:45;95742.28;;;22.00;60.55
68141;BME280;54941;52.220;104.306;2022-07-21T09:23:14;95736.91;;;21.92;60.61
68141;BME280;54941;52.220;104.306;2022-07-21T09:25:46;95730.19;;;21.85;60.71
68141;BME280;54941;52.220;104.306;2022-07-21T09:28:22;95734.06;;;21.88;61.06
68141;BME280;54941;52.220;104.306;2022-07-21T09:33:22;95723.09;;;21.72;61.73
68141;BME280;54941;52.220;104.306;2022-07-21T09:36:24;95723.47;;;21.66;62.27
68141;BME280;54941;52.220;104.306;2022-07-21T09:38:53;95724.63;;;21.60;62.40
68141;BME280;54941;52.220;104.306;2022-07-21T09:41:24;95726.88;;;21.66;62.46
68141;BME280;54941;52.220;104.306;2022-07-21T09:43:52;95723.25;;;21.62;62.20
68141;BME280;54941;52.220;104.306;2022-07-21T09:46:24;95729.72;;;21.83;61.59
68141;BME280;54941;52.220;104.306;2022-07-21T09:48:56;95723.84;;;21.59;62.71
68141;BME280;54941;52.220;104.306;2022-07-21T09:51:31;95723.47;;;21.66;62.84
68141;BME280;54941;52.220;104.306;2022-07-21T09:54:05;95718.13;;;21.57;62.51
68141;BME280;54941;52.220;104.306;2022-07-21T09:56:33;95715.66;;;21.47;64.10
68141;BME280;54941;52.220;104.306;2022-07-21T09:59:02;95705.38;;;21.51;64.19
68141;BME280;54941;52.220;104.306;2022-07-21T10:01:29;95712.63;;;21.40;64.69
68141;BME280;54941;52.220;104.306;2022-07-21T10:03:56;95712.03;;;21.29;64.29
68141;BME280;54941;52.220;104.306;2022-07-21T10:06:28;95708.09;;;21.32;64.88
68141;BME280;54941;52.220;104.306;2022-07-21T10:08:56;95714.00;;;21.05;64.64
68141;BME280;54941;52.220;104.306;2022-07-21T10:11:24;95707.22;;;20.85;66.15
68141;BME280;54941;52.220;104.306;2022-07-21T10:13:51;95707.38;;;20.94;65.46
68141;BME280;54941;52.220;104.306;2022-07-21T10:16:17;95710.88;;;21.03;65.44
68141;BME280;54941;52.220;104.306;2022-07-21T10:19:02;95709.84;;;20.85;65.89
68141;BME280;54941;52.220;104.306;2022-07-21T10:21:50;95714.94;;;20.77;66.28
68141;BME280;54941;52.220;104.306;2022-07-21T10:24:17;95704.63;;;20.67;66.37
68141;BME280;54941;52.220;104.306;2022-07-21T10:32:17;95702.38;;;20.60;67.39
68141;BME280;54941;52.220;104.306;2022-07-21T10:34:45;95698.06;;;20.51;67.07
68141;BME280;54941;52.220;104.306;2022-07-21T10:45:41;95698.97;;;20.41;68.01
68141;BME280;54941;52.220;104.306;2022-07-21T10:51:04;95693.38;;;20.48;68.22
68141;BME280;54941;52.220;104.306;2022-07-21T10:53:32;95693.16;;;20.44;68.46
68141;BME280;54941;52.220;104.306;2022-07-21T10:55:58;95691.28;;;20.26;69.59
68141;BME280;54941;52.220;104.306;2022-07-21T10:58:30;95696.31;;;20.22;70.35
68141;BME280;54941;52.220;104.306;2022-07-21T11:01:21;95703.16;;;20.18;70.84
68141;BME280;54941;52.220;104.306;2022-07-21T11:04:10;95700.50;;;20.23;71.09
68141;BME280;54941;52.220;104.306;2022-07-21T11:06:43;95698.28;;;20.12;71.49
68141;BME280;54941;52.220;104.306;2022-07-21T11:09:14;95699.53;;;20.14;71.23
68141;BME280;54941;52.220;104.306;2022-07-21T11:14:15;95697.06;;;20.04;71.25
68141;BME280;54941;52.220;104.306;2022-07-21T11:19:46;95690.69;;;19.68;66.22
68141;BME280;54941;52.220;104.306;2022-07-21T11:22:20;95702.88;;;19.54;66.55
68141;BME280;54941;52.220;104.306;2022-07-21T11:25:03;95701.16;;;19.39;66.94
68141;BME280;54941;52.220;104.306;2022-07-21T11:27:33;95702.56;;;19.26;65.77
68141;BME280;54941;52.220;104.306;2022-07-21T11:30:01;95699.81;;;19.18;65.59
68141;BME280;54941;52.220;104.306;2022-07-21T11:32:30;95709.00;;;19.10;64.78
68141;BME280;54941;52.220;104.306;2022-07-21T11:35:05;95714.28;;;19.00;65.72
68141;BME280;54941;52.220;104.306;2022-07-21T11:37:37;95713.00;;;18.98;63.84
68141;BME280;54941;52.220;104.306;2022-07-21T11:40:06;95714.38;;;18.90;64.17
68141;BME280;54941;52.220;104.306;2022-07-21T11:42:33;95714.38;;;18.90;64.09
68141;BME280;54941;52.220;104.306;2022-07-21T11:44:59;95716.84;;;18.76;63.76
68141;BME280;54941;52.220;104.306;2022-07-21T11:47:26;95718.22;;;18.64;63.80
68141;BME280;54941;52.220;104.306;2022-07-21T11:49:58;95720.34;;;18.62;63.49
68141;BME280;54941;52.220;104.306;2022-07-21T11:52:33;95719.25;;;18.63;63.50
68141;BME280;54941;52.220;104.306;2022-07-21T11:55:01;95721.63;;;18.59;63.73
68141;BME280;54941;52.220;104.306;2022-07-21T11:57:29;95718.53;;;18.52;63.86
68141;BME280;54941;52.220;104.306;2022-07-21T11:59:58;95716.19;;;18.51;64.10
68141;BME280;54941;52.220;104.306;2022-07-21T12:02:29;95711.78;;;18.51;64.17
68141;BME280;54941;52.220;104.306;2022-07-21T12:05:03;95711.53;;;18.47;64.53
68141;BME280;54941;52.220;104.306;2022-07-21T12:07:35;95707.84;;;18.48;64.36
68141;BME280;54941;52.220;104.306;2022-07-21T12:10:08;95710.50;;;18.38;65.03
68141;BME280;54941;52.220;104.306;2022-07-21T12:13:01;95702.19;;;18.36;64.81
68141;BME280;54941;52.220;104.306;2022-07-21T12:15:34;95703.19;;;18.40;65.05
68141;BME280;54941;52.220;104.306;2022-07-21T12:18:04;95695.94;;;18.32;64.65
68141;BME280;54941;52.220;104.306;2022-07-21T12:20:46;95692.81;;;18.30;64.85
68141;BME280;54941;52.220;104.306;2022-07-21T12:23:30;95680.56;;;18.26;64.41
68141;BME280;54941;52.220;104.306;2022-07-21T12:25:58;95676.13;;;18.26;64.75
68141;BME280;54941;52.220;104.306;2022-07-21T12:28:48;95679.81;;;18.20;65.06
68141;BME280;54941;52.220;104.306;2022-07-21T12:31:16;95678.81;;;18.16;65.11
68141;BME280;54941;52.220;104.306;2022-07-21T12:33:43;95662.91;;;18.13;65.84
68141;BME280;54941;52.220;104.306;2022-07-21T12:36:09;95661.28;;;18.22;65.66
68141;BME280;54941;52.220;104.306;2022-07-21T12:38:41;95657.16;;;18.16;65.89
68141;BME280;54941;52.220;104.306;2022-07-21T12:41:09;95655.63;;;18.10;66.23
68141;BME280;54941;52.220;104.306;2022-07-21T12:43:36;95645.97;;;18.10;66.22
68141;BME280;54941;52.220;104.306;2022-07-21T12:46:09;95642.84;;;18.08;66.36
68141;BME280;54941;52.220;104.306;2022-07-21T12:48:36;95631.94;;;18.01;66.79
68141;BME280;54941;52.220;104.306;2022-07-21T12:51:05;95636.13;;;17.97;67.61
68141;BME280;54941;52.220;104.306;2022-07-21T12:53:34;95632.22;;;17.94;67.82
68141;BME280;54941;52.220;104.306;2022-07-21T12:56:01;95641.09;;;17.93;68.17
68141;BME280;54941;52.220;104.306;2022-07-21T12:58:28;95638.72;;;17.97;68.04
68141;BME280;54941;52.220;104.306;2022-07-21T13:00:57;95638.47;;;17.98;67.54
68141;BME280;54941;52.220;104.306;2022-07-21T13:03:23;95636.66;;;17.94;68.43
68141;BME280;54941;52.220;104.306;2022-07-21T13:05:50;95647.63;;;17.91;69.28
68141;BME280;54941;52.220;104.306;2022-07-21T13:08:16;95653.66;;;17.86;69.22
68141;BME280;54941;52.220;104.306;2022-07-21T13:10:44;95651.34;;;17.80;70.16